createdAt,value
2019-04-11T00:01:45.211Z,100924.33
2019-04-11T00:03:49.585Z,100929.49
2019-04-11T00:05:57.292Z,100932.19
2019-04-11T00:08:05.980Z,100929.49
2019-04-11T00:10:14.503Z,100932.66
2019-04-11T00:12:22.209Z,100928.37
2019-04-11T00:14:29.722Z,100924.52
2019-04-11T00:16:37.409Z,100930.22
2019-04-11T00:18:45.046Z,100927.50
2019-04-11T00:20:52.834Z,100923.30
2019-04-11T00:23:00.361Z,100920.63
2019-04-11T00:25:09.421Z,100913.78
2019-04-11T00:27:17.201Z,100915.92
2019-04-11T00:29:24.716Z,100913.12
2019-04-11T00:31:32.699Z,100920.70
2019-04-11T00:33:40.468Z,100913.64
2019-04-11T00:35:48.086Z,100913.19
2019-04-11T00:37:55.604Z,100914.71
2019-04-11T00:40:03.891Z,100913.94
2019-04-11T00:42:12.420Z,100911.34
2019-04-11T00:44:20.913Z,100919.28
2019-04-11T00:46:28.683Z,100918.50
2019-04-11T00:48:37.614Z,100926.41
2019-04-11T00:50:45.457Z,100926.71
2019-04-11T00:52:53.723Z,100924.80
2019-04-11T00:55:01.340Z,100933.99
2019-04-11T00:57:08.998Z,100928.58
2019-04-11T00:59:16.522Z,100932.81
2019-04-11T01:01:24.046Z,100940.55
2019-04-11T01:03:31.529Z,100935.00
2019-04-11T01:05:39.425Z,100944.36
2019-04-11T01:07:47.211Z,100943.09
2019-04-11T01:09:54.866Z,100938.92
2019-04-11T01:12:02.691Z,100942.70
2019-04-11T01:14:10.301Z,100942.13
2019-04-11T01:16:43.031Z,100938.68
2019-04-11T01:18:50.571Z,100936.39
2019-04-11T01:20:58.035Z,100941.52
2019-04-11T01:23:06.769Z,100942.66
2019-04-11T01:25:14.751Z,100946.48
2019-04-11T01:27:23.614Z,100943.27
2019-04-11T01:29:31.452Z,100944.19
2019-04-11T01:31:39.899Z,100943.50
2019-04-11T01:33:48.376Z,100941.07
2019-04-11T01:35:55.877Z,100949.92
2019-04-11T01:38:04.055Z,100948.76
2019-04-11T01:40:11.834Z,100947.91
2019-04-11T01:42:19.602Z,100944.97
2019-04-11T01:44:28.313Z,100943.72
2019-04-11T01:46:36.134Z,100944.19
2019-04-11T01:48:52.057Z,100955.45
2019-04-11T01:50:59.722Z,100940.05
2019-04-11T01:53:07.394Z,100949.73
2019-04-11T01:55:14.991Z,100948.48
2019-04-11T01:57:22.454Z,100946.28
2019-04-11T01:59:31.173Z,100948.43
2019-04-11T02:01:49.406Z,100934.45
2019-04-11T02:04:03.690Z,100936.52
2019-04-11T02:06:11.820Z,100939.58
2019-04-11T02:08:19.588Z,100941.41
2019-04-11T02:10:28.594Z,100945.30
2019-04-11T02:12:37.349Z,100947.11
2019-04-11T02:14:45.903Z,100945.81
2019-04-11T02:16:53.705Z,100948.37
2019-04-11T02:19:01.667Z,100954.53
2019-04-11T02:21:09.435Z,100949.90
2019-04-11T02:23:21.550Z,100951.20
2019-04-11T02:25:48.971Z,100954.76
2019-04-11T02:27:58.101Z,100954.30
2019-04-11T02:30:08.592Z,100959.01
2019-04-11T02:32:18.259Z,100955.91
2019-04-11T02:34:25.442Z,100961.27
2019-04-11T02:36:34.199Z,100958.95
2019-04-11T02:38:42.180Z,100956.29
2019-04-11T02:40:50.695Z,100958.73
2019-04-11T02:42:59.400Z,100959.63
2019-04-11T02:45:22.472Z,100956.05
2019-04-11T02:47:24.078Z,100961.20
2019-04-11T02:49:27.796Z,100961.67
2019-04-11T02:51:36.798Z,100968.50
2019-04-11T02:53:45.102Z,100961.00
2019-04-11T02:55:54.296Z,100966.56
2019-04-11T02:58:04.015Z,100961.78
2019-04-11T03:00:13.082Z,100963.09
2019-04-11T03:02:21.470Z,100957.42
2019-04-11T03:04:30.950Z,100961.98
2019-04-11T03:06:39.643Z,100957.76
2019-04-11T03:08:48.964Z,100964.60
2019-04-11T03:10:57.724Z,100969.08
2019-04-11T03:13:05.588Z,100964.67
2019-04-11T03:15:28.726Z,100976.79
2019-04-11T03:17:28.694Z,100972.52
2019-04-11T03:19:43.962Z,100968.84
2019-04-11T03:21:44.431Z,100971.31
2019-04-11T03:23:51.372Z,100971.63
2019-04-11T03:26:00.637Z,100973.04
2019-04-11T03:28:13.735Z,100976.52
2019-04-11T03:30:24.753Z,100970.45
2019-04-11T03:35:35.004Z,100961.40
2019-04-11T03:39:15.167Z,100979.64
2019-04-11T03:41:25.291Z,100983.22
2019-04-11T03:43:28.154Z,100986.41
2019-04-11T03:45:43.521Z,100986.42
2019-04-11T03:47:44.846Z,100986.46
2019-04-11T03:49:51.070Z,100984.84
2019-04-11T03:51:53.152Z,100994.97
2019-04-11T03:54:02.186Z,100991.91
2019-04-11T03:56:09.904Z,100991.16
2019-04-11T03:58:19.661Z,101001.02
2019-04-11T04:00:33.559Z,100994.11
2019-04-11T04:02:37.241Z,100990.61
2019-04-11T04:04:46.573Z,100992.91
2019-04-11T04:06:55.209Z,100989.25
2019-04-11T04:09:04.252Z,100994.35
2019-04-11T04:11:27.053Z,100987.89
2019-04-11T04:13:36.613Z,100993.20
2019-04-11T04:16:11.984Z,100997.90
2019-04-11T04:18:29.908Z,100993.25
2019-04-11T04:20:59.699Z,101000.63
2019-04-11T04:23:20.883Z,100996.22
2019-04-11T04:25:29.116Z,100996.55
2019-04-11T04:27:36.659Z,100989.87
2019-04-11T04:29:49.013Z,101001.14
2019-04-11T04:31:54.989Z,100997.34
2019-04-11T04:34:03.874Z,101002.09
2019-04-11T04:36:13.847Z,101008.61
2019-04-11T04:38:21.200Z,101005.55
2019-04-11T04:40:49.537Z,101009.06
2019-04-11T04:42:47.710Z,101008.55
2019-04-11T04:44:50.986Z,101014.66
2019-04-11T04:47:13.589Z,101012.39
2019-04-11T04:49:11.187Z,101016.08
2019-04-11T04:51:20.566Z,101012.86
2019-04-11T04:53:28.489Z,101022.30
2019-04-11T04:55:36.804Z,101023.88
2019-04-11T04:57:44.985Z,101029.23
2019-04-11T04:59:53.205Z,101036.98
2019-04-11T05:02:01.765Z,101039.52
2019-04-11T05:04:11.339Z,101045.52
2019-04-11T05:06:20.493Z,101044.16
2019-04-11T05:08:28.226Z,101047.67
2019-04-11T05:10:36.006Z,101042.53
2019-04-11T05:12:43.918Z,101042.97
2019-04-11T05:14:51.992Z,101045.25
2019-04-11T05:17:00.419Z,101042.98
2019-04-11T05:19:08.532Z,101041.73
2019-04-11T05:21:17.058Z,101039.19
2019-04-11T05:23:25.496Z,101039.98
2019-04-11T05:25:32.986Z,101038.23
2019-04-11T05:27:40.395Z,101037.50
2019-04-11T05:29:47.777Z,101034.03
2019-04-11T05:31:55.250Z,101039.88
2019-04-11T05:34:03.502Z,101039.42
2019-04-11T05:36:12.222Z,101042.02
2019-04-11T05:38:20.731Z,101044.91
2019-04-11T05:40:28.446Z,101040.14
2019-04-11T05:42:35.865Z,101042.41
2019-04-11T05:44:43.298Z,101050.52
2019-04-11T05:46:56.189Z,101055.34
2019-04-11T05:49:09.277Z,101054.04
2019-04-11T05:51:21.190Z,101055.78
2019-04-11T05:53:25.889Z,101058.73
2019-04-11T05:55:41.416Z,101058.17
2019-04-11T05:57:48.723Z,101054.72
2019-04-11T05:59:57.669Z,101058.95
2019-04-11T06:02:13.013Z,101059.02
2019-04-11T06:04:28.602Z,101062.34
2019-04-11T06:06:58.906Z,101060.70
2019-04-11T06:09:13.440Z,101053.79
2019-04-11T06:11:28.660Z,101056.62
2019-04-11T06:13:53.482Z,101047.02
2019-04-11T06:16:02.843Z,101059.14
2019-04-11T06:18:25.957Z,101055.05
2019-04-11T06:20:49.915Z,101064.03
2019-04-11T06:23:08.164Z,101054.91
2019-04-11T06:25:28.028Z,101061.44
2019-04-11T06:27:57.916Z,101057.03
2019-04-11T06:30:28.541Z,101059.97
2019-04-11T06:32:54.363Z,101059.58
2019-04-11T06:35:06.580Z,101046.78
2019-04-11T06:37:41.635Z,101056.30
2019-04-11T06:40:02.567Z,101055.77
2019-04-11T06:42:40.614Z,101058.84
2019-04-11T06:45:01.966Z,101057.05
2019-04-11T06:47:27.160Z,101056.06
2019-04-11T06:49:53.010Z,101062.88
2019-04-11T06:52:02.473Z,101058.45
2019-04-11T06:54:23.315Z,101057.49
2019-04-11T06:56:41.149Z,101055.64
2019-04-11T06:58:53.627Z,101060.04
2019-04-11T07:01:05.495Z,101052.97
2019-04-11T07:03:22.254Z,101058.03
2019-04-11T07:05:24.722Z,101057.16
2019-04-11T07:07:35.680Z,101054.34
2019-04-11T07:09:49.254Z,101054.68
2019-04-11T07:12:01.415Z,101055.58
2019-04-11T07:14:26.970Z,101065.56
2019-04-11T07:16:36.180Z,101062.84
2019-04-11T07:18:53.312Z,101066.98
2019-04-11T07:21:03.113Z,101056.67
2019-04-11T07:23:28.511Z,101049.12
2019-04-11T07:25:55.897Z,101053.53
2019-04-11T07:28:11.014Z,101059.36
2019-04-11T07:30:37.499Z,101059.30
2019-04-11T07:32:45.180Z,101056.64
2019-04-11T07:35:10.962Z,101059.03
2019-04-11T07:37:32.663Z,101058.58
2019-04-11T07:39:58.541Z,101061.17
2019-04-11T07:42:23.904Z,101047.52
2019-04-11T07:44:32.279Z,101056.58
2019-04-11T07:46:55.935Z,101067.54
2019-04-11T07:49:08.141Z,101069.66
2019-04-11T07:51:34.744Z,101065.38
2019-04-11T07:53:45.969Z,101061.52
2019-04-11T07:55:55.433Z,101062.32
2019-04-11T07:58:21.695Z,101065.71
2019-04-11T08:00:52.882Z,101058.65
2019-04-11T08:03:25.555Z,101062.69
2019-04-11T08:06:03.810Z,101065.95
2019-04-11T08:08:32.851Z,101065.39
2019-04-11T08:10:45.749Z,101073.85
2019-04-11T08:12:54.067Z,101072.77
2019-04-11T08:15:38.491Z,101065.59
2019-04-11T08:17:46.700Z,101075.95
2019-04-11T08:20:25.652Z,101066.20
2019-04-11T08:22:39.219Z,101061.33
2019-04-11T08:24:56.498Z,101070.15
2019-04-11T08:27:32.070Z,101065.95
2019-04-11T08:29:39.606Z,101070.17
2019-04-11T08:32:12.034Z,101069.18
2019-04-11T08:34:20.681Z,101074.79
2019-04-11T08:36:50.865Z,101076.44
2019-04-11T08:38:58.604Z,101072.66
2019-04-11T08:41:13.512Z,101070.63
2019-04-11T08:43:27.049Z,101072.28
2019-04-11T08:45:35.308Z,101077.80
2019-04-11T08:47:49.215Z,101075.78
2019-04-11T08:49:58.438Z,101061.88
2019-04-11T08:52:11.850Z,101065.89
2019-04-11T08:54:53.513Z,101067.14
2019-04-11T08:57:01.316Z,101065.34
2019-04-11T08:59:35.658Z,101070.92
2019-04-11T09:01:44.316Z,101068.95
2019-04-11T09:04:15.623Z,101073.12
2019-04-11T09:06:30.506Z,101072.81
2019-04-11T09:08:59.802Z,101076.34
2019-04-11T09:11:26.105Z,101070.71
2019-04-11T09:13:56.068Z,101066.59
2019-04-11T09:16:21.576Z,101066.45
2019-04-11T09:18:30.240Z,101070.13
2019-04-11T09:21:00.123Z,101058.81
2019-04-11T09:23:13.482Z,101067.33
2019-04-11T09:25:43.470Z,101070.72
2019-04-11T09:28:11.265Z,101069.73
2019-04-11T09:30:28.612Z,101071.29
2019-04-11T09:33:01.383Z,101067.08
2019-04-11T09:35:18.535Z,101071.34
2019-04-11T09:37:36.022Z,101075.41
2019-04-11T09:40:15.337Z,101078.94
2019-04-11T09:42:43.005Z,101075.10
2019-04-11T09:44:59.377Z,101076.11
2019-04-11T09:47:38.391Z,101072.81
2019-04-11T09:49:51.589Z,101077.84
2019-04-11T09:52:07.336Z,101079.48
2019-04-11T09:54:26.187Z,101080.55
2019-04-11T09:56:56.015Z,101075.64
2019-04-11T09:59:09.023Z,101085.83
2019-04-11T10:01:35.444Z,101079.45
2019-04-11T10:03:45.033Z,101079.64
2019-04-11T10:06:26.422Z,101081.84
2019-04-11T10:08:59.740Z,101083.91
2019-04-11T10:11:32.654Z,101081.70
2019-04-11T10:14:01.785Z,101084.28
2019-04-11T10:16:31.807Z,101080.05
2019-04-11T10:19:01.290Z,101084.71
2019-04-11T10:21:09.018Z,101084.45
2019-04-11T10:23:45.126Z,101083.63
2019-04-11T10:25:56.401Z,101084.72
2019-04-11T10:28:21.819Z,101081.73
2019-04-11T10:30:48.256Z,101081.36
2019-04-11T10:32:59.419Z,101082.91
2019-04-11T10:35:24.377Z,101088.00
2019-04-11T10:37:32.351Z,101084.39
2019-04-11T10:40:05.886Z,101086.32
2019-04-11T10:42:14.864Z,101088.90
2019-04-11T10:44:28.436Z,101084.23
2019-04-11T10:46:49.509Z,101084.06
2019-04-11T10:49:05.394Z,101083.60
2019-04-11T10:51:30.361Z,101087.19
2019-04-11T10:53:39.436Z,101073.32
2019-04-11T10:56:09.031Z,101072.19
2019-04-11T10:58:22.546Z,101075.20
2019-04-11T11:00:40.396Z,101066.82
2019-04-11T11:03:09.616Z,101061.13
2019-04-11T11:05:19.140Z,101066.34
2019-04-11T11:07:30.779Z,101056.56
2019-04-11T11:10:03.518Z,101061.16
2019-04-11T11:12:25.248Z,101072.33
2019-04-11T11:14:55.382Z,101069.55
2019-04-11T11:17:10.774Z,101063.83
2019-04-11T11:19:50.175Z,101068.25
2019-04-11T11:21:45.165Z,101069.27
2019-04-11T11:24:11.736Z,101072.67
2019-04-11T11:26:26.249Z,101071.58
2019-04-11T11:28:36.753Z,101072.75
2019-04-11T11:31:03.198Z,101075.80
2019-04-11T11:33:11.036Z,101083.59
2019-04-11T11:35:50.047Z,101078.02
2019-04-11T11:38:06.015Z,101080.80
2019-04-11T11:40:32.049Z,101077.80
2019-04-11T11:42:58.786Z,101068.64
2019-04-11T11:45:14.411Z,101075.84
2019-04-11T11:47:41.448Z,101076.84
2019-04-11T11:49:57.339Z,101079.61
2019-04-11T11:52:35.042Z,101080.92
2019-04-11T11:54:46.678Z,101071.56
2019-04-11T11:56:56.439Z,101075.48
2019-04-11T11:59:25.121Z,101081.36
2019-04-11T12:01:32.928Z,101070.13
2019-04-11T12:04:01.288Z,101081.83
2019-04-11T12:06:09.541Z,101080.73
2019-04-11T12:08:54.257Z,101071.53
2019-04-11T12:11:05.951Z,101069.20
2019-04-11T12:13:32.656Z,101071.50
2019-04-11T12:16:03.579Z,101073.05
2019-04-11T12:18:49.529Z,101074.31
2019-04-11T12:20:59.326Z,101072.08
2019-04-11T12:23:15.082Z,101068.50
2019-04-11T12:25:25.411Z,101066.82
2019-04-11T12:28:00.773Z,101063.00
2019-04-11T12:30:30.542Z,101070.60
2019-04-11T12:32:37.075Z,101070.08
2019-04-11T12:35:00.354Z,101069.70
2019-04-11T12:37:12.549Z,101066.72
2019-04-11T12:39:47.885Z,101070.78
2019-04-11T12:41:57.983Z,101074.14
2019-04-11T12:44:23.324Z,101076.45
2019-04-11T12:46:48.404Z,101072.38
2019-04-11T12:49:00.317Z,101071.41
2019-04-11T12:51:39.002Z,101072.85
2019-04-11T12:53:48.178Z,101064.63
2019-04-11T12:56:20.403Z,101059.58
2019-04-11T12:58:30.593Z,101057.98
2019-04-11T13:00:53.248Z,101067.75
2019-04-11T13:03:18.992Z,101072.47
2019-04-11T13:05:26.606Z,101069.78
2019-04-11T13:08:05.100Z,101073.02
2019-04-11T13:10:25.640Z,101069.20
2019-04-11T13:12:54.753Z,101072.48
2019-04-11T13:15:27.337Z,101082.11
2019-04-11T13:17:37.531Z,101072.05
2019-04-11T13:20:04.903Z,101078.59
2019-04-11T13:22:17.999Z,101080.74
2019-04-11T13:24:53.394Z,101070.38
2019-04-11T13:27:12.801Z,101078.05
2019-04-11T13:29:45.011Z,101065.50
2019-04-11T13:32:10.221Z,101069.15
2019-04-11T13:34:17.799Z,101068.73
2019-04-11T13:36:50.070Z,101066.14
2019-04-11T13:38:57.609Z,101063.08
2019-04-11T13:41:42.237Z,101072.47
2019-04-11T13:44:06.883Z,101068.49
2019-04-11T13:46:25.352Z,101066.69
2019-04-11T13:49:01.241Z,101075.48
2019-04-11T13:51:14.203Z,101074.97
2019-04-11T13:53:39.432Z,101082.14
2019-04-11T13:55:46.823Z,101071.09
2019-04-11T13:58:13.479Z,101076.63
2019-04-11T14:00:41.794Z,101076.14
2019-04-11T14:03:11.010Z,101064.85
2019-04-11T14:05:18.406Z,101070.97
2019-04-11T14:07:26.001Z,101073.09
2019-04-11T14:09:41.169Z,101078.66
2019-04-11T14:11:50.312Z,101078.07
2019-04-11T14:13:57.794Z,101083.80
2019-04-11T14:16:10.154Z,101078.70
2019-04-11T14:18:29.645Z,101078.53
2019-04-11T14:20:49.331Z,101077.55
2019-04-11T14:23:18.438Z,101075.26
2019-04-11T14:25:53.657Z,101071.62
2019-04-11T14:28:02.158Z,101071.09
2019-04-11T14:30:35.089Z,101070.01
2019-04-11T14:32:45.624Z,101070.20
2019-04-11T14:35:10.649Z,101058.17
2019-04-11T14:37:38.393Z,101053.91
2019-04-11T14:39:46.912Z,101052.91
2019-04-11T14:42:16.884Z,101052.98
2019-04-11T14:44:24.841Z,101048.97
2019-04-11T14:47:09.405Z,101044.36
2019-04-11T14:49:18.108Z,101045.45
2019-04-11T14:51:36.498Z,101043.41
2019-04-11T14:54:18.271Z,101050.02
2019-04-11T14:56:27.023Z,101049.67
2019-04-11T14:58:53.856Z,101050.67
2019-04-11T15:01:01.988Z,101051.30
2019-04-11T15:03:34.435Z,101056.45
2019-04-11T15:05:46.363Z,101049.69
2019-04-11T15:07:54.094Z,101054.13
2019-04-11T15:10:19.093Z,101052.16
2019-04-11T15:12:27.896Z,101048.25
2019-04-11T15:14:52.816Z,101049.02
2019-04-11T15:17:19.038Z,101045.73
2019-04-11T15:19:26.602Z,101047.33
2019-04-11T15:22:11.190Z,101044.47
2019-04-11T15:24:19.903Z,101039.67
2019-04-11T15:26:54.957Z,101040.17
2019-04-11T15:29:08.976Z,101031.05
2019-04-11T15:31:39.452Z,101037.63
2019-04-11T15:34:08.776Z,101037.97
2019-04-11T15:36:17.612Z,101033.80
2019-04-11T15:38:43.743Z,101046.73
2019-04-11T15:40:54.403Z,101047.09
2019-04-11T15:43:32.745Z,101043.66
2019-04-11T15:46:01.784Z,101047.23
2019-04-11T15:48:43.410Z,101054.03
2019-04-11T15:51:18.435Z,101049.74
2019-04-11T15:53:34.822Z,101051.42
2019-04-11T15:56:01.104Z,101057.56
2019-04-11T15:58:12.524Z,101059.84
2019-04-11T16:00:36.991Z,101060.33
2019-04-11T16:02:59.202Z,101059.66
2019-04-11T16:05:24.237Z,101063.27
2019-04-11T16:07:50.341Z,101059.16
2019-04-11T16:09:57.809Z,101065.84
2019-04-11T16:12:18.582Z,101069.62
2019-04-11T16:14:37.773Z,101070.52
2019-04-11T16:16:52.168Z,101072.03
2019-04-11T16:19:17.722Z,101068.65
2019-04-11T16:21:33.965Z,101067.93
2019-04-11T16:23:58.482Z,101072.45
2019-04-11T16:26:09.896Z,101068.95
2019-04-11T16:28:55.847Z,101062.95
2019-04-11T16:31:03.493Z,101064.32
2019-04-11T16:33:28.610Z,101070.97
2019-04-11T16:35:58.053Z,101071.95
2019-04-11T16:38:07.060Z,101073.59
2019-04-11T16:40:53.439Z,101073.59
2019-04-11T16:43:05.006Z,101077.09
2019-04-11T16:45:40.845Z,101080.30
2019-04-11T16:48:02.083Z,101084.73
2019-04-11T16:50:10.021Z,101092.69
2019-04-11T16:52:17.686Z,101095.00
2019-04-11T16:54:25.069Z,101094.30
2019-04-11T16:56:32.672Z,101098.33
2019-04-11T16:58:40.164Z,101094.45
2019-04-11T17:00:52.089Z,101100.12
2019-04-11T17:02:56.897Z,101103.69
2019-04-11T17:05:05.044Z,101094.60
2019-04-11T17:07:31.330Z,101099.94
2019-04-11T17:09:44.926Z,101107.42
2019-04-11T17:11:52.359Z,101106.17
2019-04-11T17:14:00.606Z,101108.85
2019-04-11T17:16:12.092Z,101115.91
2019-04-11T17:18:19.809Z,101107.20
2019-04-11T17:20:27.970Z,101118.61
2019-04-11T17:22:35.602Z,101117.42
2019-04-11T17:24:43.236Z,101118.84
2019-04-11T17:26:52.818Z,101129.86
2019-04-11T17:28:59.886Z,101123.39
2019-04-11T17:31:07.626Z,101126.23
2019-04-11T17:33:15.132Z,101126.58
2019-04-11T17:35:22.730Z,101136.62
2019-04-11T17:37:30.993Z,101137.53
2019-04-11T17:39:39.377Z,101128.84
2019-04-11T17:41:46.779Z,101136.73
2019-04-11T17:43:54.272Z,101134.24
2019-04-11T17:46:01.710Z,101145.17
2019-04-11T17:48:10.295Z,101144.34
2019-04-11T17:50:18.006Z,101145.73
2019-04-11T17:52:25.498Z,101145.80
2019-04-11T17:54:32.978Z,101153.71
2019-04-11T17:56:40.497Z,101162.05
2019-04-11T17:58:48.849Z,101164.23
2019-04-11T18:01:00.526Z,101166.95
2019-04-11T18:03:11.797Z,101169.16
2019-04-11T18:05:17.707Z,101169.74
2019-04-11T18:07:26.321Z,101178.45
2019-04-11T18:09:34.184Z,101172.38
2019-04-11T18:11:42.167Z,101176.41
2019-04-11T18:13:49.703Z,101177.22
2019-04-11T18:16:00.903Z,101179.52
2019-04-11T18:18:07.887Z,101187.82
2019-04-11T18:20:16.057Z,101181.75
2019-04-11T18:22:23.934Z,101193.98
2019-04-11T18:24:31.381Z,101190.06
2019-04-11T18:26:39.363Z,101197.32
2019-04-11T18:28:47.235Z,101197.20
2019-04-11T18:30:54.868Z,101203.80
2019-04-11T18:33:04.110Z,101201.61
2019-04-11T18:35:12.467Z,101205.05
2019-04-11T18:37:20.111Z,101202.02
2019-04-11T18:39:27.711Z,101207.75
2019-04-11T18:41:35.873Z,101202.55
2019-04-11T18:43:46.796Z,101203.44
2019-04-11T18:45:53.605Z,101201.86
2019-04-11T18:48:01.077Z,101205.26
2019-04-11T18:50:11.773Z,101209.72
2019-04-11T18:52:20.223Z,101206.36
2019-04-11T18:54:28.979Z,101209.09
2019-04-11T18:56:38.052Z,101210.07
2019-04-11T18:58:45.913Z,101211.09
2019-04-11T19:00:53.907Z,101212.16
2019-04-11T19:03:01.486Z,101213.20
2019-04-11T19:05:10.878Z,101211.16
2019-04-11T19:07:27.620Z,101212.44
2019-04-11T19:09:29.666Z,101218.27
2019-04-11T19:11:37.265Z,101221.86
2019-04-11T19:13:47.030Z,101214.11
2019-04-11T19:15:54.187Z,101219.33
2019-04-11T19:18:06.783Z,101216.35
2019-04-11T19:20:11.293Z,101218.55
2019-04-11T19:22:20.826Z,101213.49
2019-04-11T19:24:35.488Z,101219.58
2019-04-11T19:26:37.469Z,101215.68
2019-04-11T19:28:46.358Z,101220.17
2019-04-11T19:30:56.116Z,101213.34
2019-04-11T19:33:03.100Z,101203.97
2019-04-11T19:35:10.983Z,101213.47
2019-04-11T19:37:18.670Z,101214.72
2019-04-11T19:39:30.327Z,101210.27
2019-04-11T19:41:38.316Z,101210.41
2019-04-11T19:43:48.722Z,101212.78
2019-04-11T19:45:55.513Z,101213.66
2019-04-11T19:48:03.073Z,101218.55
2019-04-11T19:50:11.557Z,101216.00
2019-04-11T19:52:19.404Z,101220.55
2019-04-11T19:54:26.884Z,101218.00
2019-04-11T19:56:39.599Z,101226.37
2019-04-11T19:58:47.437Z,101221.10
2019-04-11T20:00:55.562Z,101222.91
2019-04-11T20:03:03.233Z,101230.84
2019-04-11T20:05:12.339Z,101225.67
2019-04-11T20:07:20.558Z,101231.80
2019-04-11T20:09:29.349Z,101234.05
2019-04-11T20:11:36.939Z,101233.69
2019-04-11T20:13:44.431Z,101229.38
2019-04-11T20:15:51.973Z,101238.59
2019-04-11T20:17:59.537Z,101236.83
2019-04-11T20:20:07.896Z,101227.75
2019-04-11T20:22:15.500Z,101236.50
2019-04-11T20:24:23.113Z,101239.11
2019-04-11T20:26:30.655Z,101234.42
2019-04-11T20:28:38.260Z,101242.20
2019-04-11T20:30:46.029Z,101248.71
2019-04-11T20:32:53.651Z,101248.38
2019-04-11T20:35:01.171Z,101252.31
2019-04-11T20:37:12.522Z,101258.85
2019-04-11T20:39:18.161Z,101255.83
2019-04-11T20:41:25.668Z,101259.29
2019-04-11T20:43:33.129Z,101262.38
2019-04-11T20:45:41.631Z,101257.13
2019-04-11T20:47:49.169Z,101268.02
2019-04-11T20:49:56.645Z,101268.05
2019-04-11T20:52:04.806Z,101265.05
2019-04-11T20:54:12.423Z,101266.75
2019-04-11T20:56:24.325Z,101268.95
2019-04-11T20:58:28.966Z,101271.61
2019-04-11T21:00:49.221Z,101273.80
2019-04-11T21:02:46.634Z,101271.63
2019-04-11T21:04:54.461Z,101273.34
2019-04-11T21:07:02.623Z,101271.25
2019-04-11T21:09:12.686Z,101273.43
2019-04-11T21:11:20.402Z,101271.66
2019-04-11T21:13:27.827Z,101272.55
2019-04-11T21:15:35.298Z,101280.77
2019-04-11T21:17:42.908Z,101283.79
2019-04-11T21:19:50.997Z,101284.25
2019-04-11T21:22:00.142Z,101286.83
2019-04-11T21:24:07.530Z,101282.07
2019-04-11T21:26:15.907Z,101288.16
2019-04-11T21:28:23.367Z,101285.96
2019-04-11T21:30:31.229Z,101292.45
2019-04-11T21:32:38.630Z,101292.08
2019-04-11T21:34:46.116Z,101289.51
2019-04-11T21:36:53.485Z,101291.23
2019-04-11T21:39:03.569Z,101295.59
2019-04-11T21:41:10.017Z,101293.42
2019-04-11T21:43:17.405Z,101292.55
2019-04-11T21:45:24.843Z,101302.94
2019-04-11T21:47:32.219Z,101301.25
2019-04-11T21:49:39.680Z,101301.25
2019-04-11T21:51:47.350Z,101306.01
2019-04-11T21:53:54.805Z,101303.39
2019-04-11T21:56:02.276Z,101306.44
2019-04-11T21:58:09.713Z,101303.41
2019-04-11T22:00:27.703Z,101306.02
2019-04-11T22:02:35.322Z,101304.30
2019-04-11T22:04:42.684Z,101306.05
2019-04-11T22:06:50.173Z,101311.66
2019-04-11T22:08:57.729Z,101305.61
2019-04-11T22:11:05.186Z,101305.59
2019-04-11T22:13:12.614Z,101310.34
2019-04-11T22:15:19.951Z,101309.92
2019-04-11T22:17:27.305Z,101306.02
2019-04-11T22:19:34.661Z,101309.94
2019-04-11T22:21:45.025Z,101313.39
2019-04-11T22:23:51.199Z,101309.05
2019-04-11T22:25:58.599Z,101311.66
2019-04-11T22:28:05.998Z,101312.51
2019-04-11T22:30:15.553Z,101312.97
2019-04-11T22:32:23.768Z,101312.09
2019-04-11T22:34:44.065Z,101304.28
2019-04-11T22:36:51.372Z,101307.32
2019-04-11T22:39:01.006Z,101309.05
2019-04-11T22:41:07.901Z,101306.88
2019-04-11T22:43:24.088Z,101305.56
2019-04-11T22:45:24.372Z,101308.95
2019-04-11T22:47:31.877Z,101311.59
2019-04-11T22:49:40.006Z,101311.57
2019-04-11T22:51:47.514Z,101312.45
2019-04-11T22:54:00.351Z,101305.34
2019-04-11T22:56:04.098Z,101300.98
2019-04-11T22:58:13.993Z,101313.09
2019-04-11T23:00:20.687Z,101309.13
2019-04-11T23:02:47.373Z,101311.20
2019-04-11T23:04:54.674Z,101302.42
2019-04-11T23:07:02.057Z,101299.38
2019-04-11T23:09:09.806Z,101300.27
2019-04-11T23:11:17.203Z,101306.47
2019-04-11T23:13:24.673Z,101302.46
2019-04-11T23:15:32.091Z,101302.08
2019-04-11T23:17:41.784Z,101310.38
2019-04-11T23:19:48.535Z,101307.83
2019-04-11T23:21:55.866Z,101311.30
2019-04-11T23:24:11.496Z,101313.45
2019-04-11T23:26:12.323Z,101314.34
2019-04-11T23:28:19.712Z,101311.81
2019-04-11T23:30:27.109Z,101316.62
2019-04-11T23:32:34.443Z,101318.86
2019-04-11T23:34:41.811Z,101318.42
2019-04-11T23:36:51.302Z,101324.83
2019-04-11T23:38:58.357Z,101316.52
2019-04-11T23:41:05.743Z,101318.24
2019-04-11T23:43:15.252Z,101315.55
2019-04-11T23:45:25.155Z,101313.80
2019-04-11T23:47:32.546Z,101315.58
2019-04-11T23:49:39.927Z,101317.20
2019-04-11T23:51:47.364Z,101307.67
2019-04-11T23:53:59.030Z,101310.28
2019-04-11T23:56:03.785Z,101314.56
2019-04-11T23:58:11.219Z,101308.48
